Time;durP1;ratioP1;P1;durP2;ratioP2;P2;SDS_P1;SDS_P2;PMS_P1;PMS_P2;Temp;Humidity;BMP_temperature;BMP_pressure;BME280_temperature;BME280_humidity;BME280_pressure;Samples;Min_cycle;Max_cycle;Signal;HPM_P1;HPM_P2
2022/11/12 00:00:17;;;;;;;7.90;6.90;;;7.10;99.90;;;;;;5097385;28;20475;-75
2022/11/12 00:03:02;;;;;;;20.97;6.80;;;7.20;99.90;;;;;;5089473;28;20485;-75
2022/11/12 00:05:49;;;;;;;25.13;6.70;;;7.30;99.90;;;;;;5099002;28;20884;-75
2022/11/12 00:08:35;;;;;;;10.50;6.90;;;7.20;99.90;;;;;;5107107;28;20427;-75
2022/11/12 00:11:21;;;;;;;9.60;7.60;;;7.20;99.90;;;;;;5101138;28;20455;-74
2022/11/12 00:14:07;;;;;;;18.40;6.70;;;7.30;99.90;;;;;;5096030;28;20417;-75
2022/11/12 00:16:53;;;;;;;6.57;5.97;;;7.30;99.90;;;;;;5080286;28;20712;-75
2022/11/12 00:19:39;;;;;;;33.95;7.47;;;7.30;99.90;;;;;;5094135;28;20421;-75
2022/11/12 00:22:24;;;;;;;8.77;7.23;;;7.20;99.90;;;;;;5089077;28;20702;-75
2022/11/12 00:25:10;;;;;;;12.70;7.33;;;7.10;99.90;;;;;;5093703;28;20422;-75
2022/11/12 00:28:01;;;;;;;20.07;7.30;;;7.10;99.90;;;;;;5092133;28;21100;-75
2022/11/12 00:30:47;;;;;;;25.03;7.97;;;7.20;99.90;;;;;;5088446;28;20607;-75
2022/11/12 00:33:34;;;;;;;11.00;8.40;;;7.20;99.90;;;;;;5091046;28;20438;-74
2022/11/12 00:36:19;;;;;;;51.77;8.13;;;7.10;99.90;;;;;;5082615;28;20826;-75
2022/11/12 00:39:04;;;;;;;39.57;8.63;;;7.10;99.90;;;;;;5088948;28;20591;-74
2022/11/12 00:41:50;;;;;;;17.63;7.87;;;7.00;99.90;;;;;;5081707;28;20457;-74
2022/11/12 00:44:35;;;;;;;14.83;7.60;;;6.90;99.90;;;;;;5075715;28;20438;-75
2022/11/12 00:47:21;;;;;;;13.87;7.07;;;6.90;99.90;;;;;;5094227;28;20484;-74
2022/11/12 00:50:09;;;;;;;26.57;7.80;;;7.10;99.90;;;;;;5096434;28;20466;-75
2022/11/12 00:52:55;;;;;;;12.83;8.13;;;7.20;99.90;;;;;;5080263;28;20406;-74
2022/11/12 00:55:40;;;;;;;29.80;8.07;;;7.20;99.90;;;;;;5093608;28;20959;-75
2022/11/12 00:58:27;;;;;;;11.17;7.83;;;7.20;99.90;;;;;;5076183;28;20827;-75
2022/11/12 01:01:15;;;;;;;10.05;8.18;;;7.20;99.90;;;;;;5074646;28;20421;-75
2022/11/12 01:04:01;;;;;;;13.47;7.50;;;7.30;99.90;;;;;;5080686;28;20203;-75
2022/11/12 01:06:48;;;;;;;14.77;7.83;;;7.40;99.90;;;;;;5081994;28;20436;-75
2022/11/12 01:09:33;;;;;;;65.37;9.47;;;7.40;99.90;;;;;;5087686;28;20457;-75
2022/11/12 01:12:19;;;;;;;56.83;8.33;;;7.30;99.90;;;;;;5086571;28;20975;-75
2022/11/12 01:15:06;;;;;;;73.30;8.77;;;7.20;99.90;;;;;;5086540;28;20986;-75
2022/11/12 01:17:52;;;;;;;36.87;9.00;;;7.10;99.90;;;;;;5077278;28;20593;-75
2022/11/12 01:20:38;;;;;;;14.57;8.70;;;7.00;99.90;;;;;;5079458;28;20438;-75
2022/11/12 01:23:26;;;;;;;13.20;8.10;;;7.00;99.90;;;;;;5085341;28;20462;-74
2022/11/12 01:26:13;;;;;;;9.73;7.78;;;7.00;99.90;;;;;;5092541;28;20535;-75
2022/11/12 01:28:58;;;;;;;21.60;8.17;;;7.20;99.90;;;;;;5076874;28;20254;-75
2022/11/12 01:31:44;;;;;;;9.77;7.67;;;7.20;99.90;;;;;;5084855;28;20480;-75
2022/11/12 01:34:29;;;;;;;39.57;7.83;;;7.20;99.90;;;;;;5081445;28;20471;-75
2022/11/12 01:37:15;;;;;;;36.30;7.63;;;7.30;99.90;;;;;;5076113;28;20471;-75
2022/11/12 01:40:02;;;;;;;41.77;7.60;;;7.30;99.90;;;;;;5082533;28;20430;-75
2022/11/12 01:42:52;;;;;;;20.13;7.60;;;7.30;99.90;;;;;;5079953;28;20429;-75
2022/11/12 01:45:40;;;;;;;16.87;8.33;;;7.30;99.90;;;;;;5081528;28;20523;-75
2022/11/12 01:48:28;;;;;;;76.03;8.17;;;7.40;99.90;;;;;;5084820;28;20473;-75
2022/11/12 01:51:15;;;;;;;22.10;6.20;;;7.40;99.90;;;;;;5081025;28;20560;-75
2022/11/12 01:54:04;;;;;;;34.07;7.30;;;7.40;99.90;;;;;;5088283;28;20458;-75
2022/11/12 01:56:52;;;;;;;59.93;7.83;;;7.40;99.90;;;;;;5084715;28;20439;-75
2022/11/12 01:59:43;;;;;;;27.83;7.00;;;7.30;99.90;;;;;;5073184;28;20441;-75
2022/11/12 02:02:29;;;;;;;9.50;6.00;;;7.30;99.90;;;;;;5086301;28;21124;-75
2022/11/12 02:05:16;;;;;;;56.97;7.47;;;7.30;99.90;;;;;;5080111;28;20551;-75
2022/11/12 02:08:04;;;;;;;23.47;6.57;;;7.30;99.90;;;;;;5088408;28;20456;-75
2022/11/12 02:10:50;;;;;;;25.70;7.53;;;7.20;99.90;;;;;;5085633;28;20464;-75
2022/11/12 02:16:45;;;;;;;9.03;6.10;;;7.20;99.90;;;;;;5099726;28;20642;-75
2022/11/12 02:19:30;;;;;;;25.47;6.90;;;7.20;99.90;;;;;;5079647;28;20811;-75
2022/11/12 02:22:17;;;;;;;8.17;6.53;;;7.30;99.90;;;;;;5085808;28;20454;-76
2022/11/12 02:25:03;;;;;;;13.27;5.83;;;7.40;99.90;;;;;;5087464;28;20816;-75
2022/11/12 02:27:51;;;;;;;10.17;6.30;;;7.40;99.90;;;;;;5089686;28;20472;-75
2022/11/12 02:30:38;;;;;;;21.60;6.50;;;7.50;99.90;;;;;;5086457;28;20470;-75
2022/11/12 02:33:24;;;;;;;7.27;6.27;;;7.40;99.90;;;;;;5082846;28;20496;-75
2022/11/12 02:36:09;;;;;;;9.80;6.10;;;7.40;99.90;;;;;;5092872;28;20433;-75
2022/11/12 02:38:57;;;;;;;9.03;5.73;;;7.40;99.90;;;;;;5083575;28;21035;-75
2022/11/12 02:41:42;;;;;;;7.40;6.60;;;7.40;99.90;;;;;;5091357;28;20510;-75
2022/11/12 02:44:28;;;;;;;8.47;7.00;;;7.30;99.90;;;;;;5096773;28;20459;-75
2022/11/12 02:47:14;;;;;;;18.13;5.77;;;7.30;99.90;;;;;;5111475;28;20444;-75
2022/11/12 02:49:59;;;;;;;11.20;6.10;;;7.20;99.90;;;;;;5097846;28;20822;-75
2022/11/12 02:52:45;;;;;;;10.93;5.72;;;7.20;99.90;;;;;;5089636;28;20449;-74
2022/11/12 02:55:32;;;;;;;6.50;5.30;;;7.20;99.90;;;;;;5088623;28;20208;-75
2022/11/12 02:58:17;;;;;;;12.40;4.23;;;7.30;99.90;;;;;;5080692;28;20495;-75
2022/11/12 03:01:03;;;;;;;31.90;4.70;;;7.50;99.90;;;;;;5083756;28;20957;-75
2022/11/12 03:03:48;;;;;;;8.93;5.43;;;7.50;99.90;;;;;;5078983;28;20445;-76
2022/11/12 03:06:34;;;;;;;8.93;6.00;;;7.40;99.90;;;;;;5096392;28;20922;-74
2022/11/12 03:09:19;;;;;;;8.30;6.10;;;7.50;99.90;;;;;;5099346;28;20400;-75
2022/11/12 03:12:07;;;;;;;7.90;6.70;;;7.50;99.90;;;;;;5089914;28;20817;-75
2022/11/12 03:14:52;;;;;;;22.87;8.00;;;7.50;99.90;;;;;;5088914;28;20559;-75
2022/11/12 03:17:38;;;;;;;86.83;7.43;;;7.50;99.90;;;;;;5090445;28;20503;-75
2022/11/12 03:20:23;;;;;;;10.70;6.80;;;7.40;99.90;;;;;;5086200;28;20561;-75
2022/11/12 03:23:10;;;;;;;47.27;6.60;;;7.40;99.90;;;;;;5090523;28;20461;-75
2022/11/12 03:25:56;;;;;;;24.13;7.00;;;7.40;99.90;;;;;;5086378;28;20821;-75
2022/11/12 03:28:43;;;;;;;19.60;5.87;;;7.40;99.90;;;;;;5090403;28;20846;-73
2022/11/12 03:31:28;;;;;;;9.95;6.40;;;7.30;99.90;;;;;;5083848;28;20797;-75
2022/11/12 03:34:14;;;;;;;10.73;6.50;;;7.30;99.90;;;;;;5087639;28;20302;-75
2022/11/12 03:36:59;;;;;;;12.40;6.87;;;7.30;99.90;;;;;;5103063;28;20502;-75
2022/11/12 03:39:45;;;;;;;19.93;7.13;;;7.30;99.90;;;;;;5086269;28;20416;-75
2022/11/12 03:42:30;;;;;;;7.27;6.50;;;7.40;99.90;;;;;;5086000;28;20442;-75
2022/11/12 03:45:19;;;;;;;15.93;6.67;;;7.40;99.90;;;;;;5087735;28;20460;-75
2022/11/12 03:48:05;;;;;;;7.13;6.13;;;7.40;99.90;;;;;;5086753;28;21027;-75
2022/11/12 03:50:51;;;;;;;7.63;6.50;;;7.40;99.90;;;;;;5078396;28;20542;-75
2022/11/12 03:53:36;;;;;;;7.73;6.67;;;7.40;99.90;;;;;;5092584;28;20203;-75
2022/11/12 03:56:22;;;;;;;18.60;6.27;;;7.30;99.90;;;;;;5101163;28;20402;-75
2022/11/12 03:59:08;;;;;;;10.47;6.23;;;7.30;99.90;;;;;;5097452;28;20415;-75
2022/11/12 04:01:54;;;;;;;33.73;6.33;;;7.30;99.90;;;;;;5080871;28;20474;-75
2022/11/12 04:10:47;;;;;;;10.13;6.40;;;7.30;99.90;;;;;;5080542;28;20253;-75
2022/11/12 04:13:32;;;;;;;10.70;6.63;;;7.30;99.90;;;;;;5097677;28;20575;-75
2022/11/12 04:22:28;;;;;;;48.13;7.03;;;7.30;99.90;;;;;;5098012;28;20524;-74
2022/11/12 04:28:17;;;;;;;6.60;6.00;;;7.30;99.90;;;;;;5089560;28;20464;-75
2022/11/12 04:31:02;;;;;;;12.00;5.43;;;7.20;99.90;;;;;;5082573;28;20513;-75
2022/11/12 04:33:47;;;;;;;28.20;6.23;;;7.20;99.90;;;;;;5085509;28;20449;-74
2022/11/12 04:36:34;;;;;;;19.57;7.07;;;7.20;99.90;;;;;;5093013;28;20583;-74
2022/11/12 04:39:20;;;;;;;63.87;7.57;;;7.20;99.90;;;;;;5082844;28;20469;-75
2022/11/12 04:45:09;;;;;;;19.90;6.30;;;7.20;99.90;;;;;;5089676;28;20196;-74
2022/11/12 04:47:55;;;;;;;20.10;5.60;;;7.10;99.90;;;;;;5091752;28;20360;-75
2022/11/12 04:50:42;;;;;;;38.55;6.15;;;7.10;99.90;;;;;;5084600;28;20251;-75
2022/11/12 04:53:29;;;;;;;12.95;6.05;;;7.10;99.90;;;;;;5083822;28;20366;-75
2022/11/12 04:56:15;;;;;;;5.40;4.90;;;7.10;99.90;;;;;;5095688;28;20212;-74
2022/11/12 04:59:00;;;;;;;10.27;4.90;;;7.00;99.90;;;;;;5087431;28;20536;-75
2022/11/12 05:01:46;;;;;;;22.50;4.90;;;7.10;99.90;;;;;;5090465;28;20485;-74
2022/11/12 05:04:31;;;;;;;5.68;5.07;;;7.00;99.90;;;;;;5086905;28;20510;-75
2022/11/12 05:07:18;;;;;;;5.07;4.30;;;7.00;99.90;;;;;;5085014;28;20334;-75
2022/11/12 05:10:06;;;;;;;6.03;4.93;;;6.90;99.90;;;;;;5080728;28;20424;-75
2022/11/12 05:12:52;;;;;;;22.53;4.57;;;6.90;99.90;;;;;;5081526;28;20525;-75
2022/11/12 05:15:37;;;;;;;16.05;4.47;;;6.90;99.90;;;;;;5079654;28;20441;-75
2022/11/12 05:18:23;;;;;;;25.77;5.20;;;6.80;99.90;;;;;;5077144;28;20781;-75
2022/11/12 05:24:08;;;;;;;70.20;5.57;;;6.80;99.90;;;;;;5083490;28;20204;-75
2022/11/12 05:26:55;;;;;;;51.95;5.07;;;6.80;99.90;;;;;;5078246;28;20246;-76
2022/11/12 05:29:41;;;;;;;31.10;5.07;;;6.80;99.90;;;;;;5080320;28;20204;-75
2022/11/12 05:32:27;;;;;;;14.40;4.77;;;6.70;99.90;;;;;;5079590;28;21037;-75
2022/11/12 05:35:12;;;;;;;36.57;4.77;;;6.70;99.90;;;;;;5077823;28;20449;-75
2022/11/12 05:37:58;;;;;;;29.83;5.00;;;6.70;99.90;;;;;;5098734;28;20484;-75
2022/11/12 05:40:45;;;;;;;11.33;4.10;;;6.70;99.90;;;;;;5088044;28;20947;-75
2022/11/12 05:43:32;;;;;;;8.00;3.90;;;6.70;99.90;;;;;;5081527;28;20446;-75
2022/11/12 05:46:17;;;;;;;7.00;4.37;;;6.70;99.90;;;;;;5090100;28;21410;-75
2022/11/12 05:49:03;;;;;;;4.10;3.72;;;6.60;99.90;;;;;;5076702;28;20442;-75
2022/11/12 05:51:49;;;;;;;10.83;3.90;;;6.60;99.90;;;;;;5086764;28;20316;-75
2022/11/12 05:54:35;;;;;;;10.27;4.03;;;6.70;99.90;;;;;;5094068;28;20507;-75
2022/11/12 05:57:20;;;;;;;17.77;4.80;;;6.60;99.90;;;;;;5089939;28;20226;-75
2022/11/12 06:00:09;;;;;;;21.23;4.13;;;6.60;99.90;;;;;;5094548;28;20325;-75
2022/11/12 06:02:57;;;;;;;12.73;3.50;;;6.60;99.90;;;;;;5087677;28;20423;-75
2022/11/12 06:05:43;;;;;;;19.03;3.90;;;6.70;99.90;;;;;;5088106;28;20455;-75
2022/11/12 06:08:28;;;;;;;5.07;4.00;;;6.70;99.90;;;;;;5083536;28;20535;-75
2022/11/12 06:11:14;;;;;;;3.95;3.40;;;6.70;99.90;;;;;;5093844;28;20968;-74
2022/11/12 06:14:00;;;;;;;34.15;4.40;;;6.70;99.90;;;;;;5088922;28;20278;-74
2022/11/12 06:16:47;;;;;;;6.00;3.60;;;6.70;99.90;;;;;;5105616;28;20768;-75
2022/11/12 06:19:32;;;;;;;8.55;4.40;;;6.80;99.90;;;;;;5086083;28;20454;-75
2022/11/12 06:22:18;;;;;;;5.30;4.30;;;6.70;99.90;;;;;;5109629;28;20244;-75
2022/11/12 06:25:04;;;;;;;21.58;3.97;;;6.70;99.90;;;;;;5106648;28;20872;-75
2022/11/12 06:27:50;;;;;;;20.53;4.03;;;6.70;99.90;;;;;;5090265;28;20239;-75
2022/11/12 06:30:36;;;;;;;25.77;4.50;;;6.60;99.90;;;;;;5087418;28;20508;-75
2022/11/12 06:33:23;;;;;;;23.63;4.07;;;6.60;99.90;;;;;;5090916;28;20416;-75
2022/11/12 06:36:10;;;;;;;23.00;4.60;;;6.60;99.90;;;;;;5090177;28;20276;-76
2022/11/12 06:38:56;;;;;;;11.80;4.33;;;6.70;99.90;;;;;;5084385;28;20252;-75
2022/11/12 06:41:41;;;;;;;15.90;4.63;;;6.60;99.90;;;;;;5097897;28;20422;-75
2022/11/12 06:44:27;;;;;;;8.32;4.30;;;6.60;99.90;;;;;;5094725;28;20677;-74
2022/11/12 06:47:12;;;;;;;15.13;4.45;;;6.70;99.90;;;;;;5080404;28;20224;-75
2022/11/12 06:49:59;;;;;;;27.57;4.20;;;6.70;99.90;;;;;;5091477;28;20244;-75
2022/11/12 06:52:45;;;;;;;6.03;4.75;;;6.70;99.90;;;;;;5101174;28;20547;-75
2022/11/12 06:55:31;;;;;;;36.73;4.90;;;6.70;99.90;;;;;;5091126;28;20207;-75
2022/11/12 06:58:16;;;;;;;17.30;4.33;;;6.60;99.90;;;;;;5079700;28;20439;-75
2022/11/12 07:01:07;;;;;;;10.07;4.20;;;6.60;99.90;;;;;;5094793;28;20543;-74
2022/11/12 07:03:54;;;;;;;17.08;4.20;;;6.50;99.90;;;;;;5108551;28;20429;-75
2022/11/12 07:06:40;;;;;;;12.03;3.67;;;6.50;99.90;;;;;;5089720;28;20219;-74
2022/11/12 07:09:26;;;;;;;17.73;3.80;;;6.50;99.90;;;;;;5082172;28;20449;-74
2022/11/12 07:12:11;;;;;;;14.83;3.90;;;6.60;99.90;;;;;;5092874;28;20804;-75
2022/11/12 07:14:57;;;;;;;15.33;4.80;;;6.60;99.90;;;;;;5080372;28;20470;-75
2022/11/12 07:17:45;;;;;;;11.13;4.90;;;6.60;99.90;;;;;;5079445;28;20477;-75
2022/11/12 07:20:31;;;;;;;53.60;6.13;;;6.60;99.90;;;;;;5079857;28;20450;-75
2022/11/12 07:23:18;;;;;;;34.73;6.07;;;6.60;99.90;;;;;;5093650;28;20896;-75
2022/11/12 07:26:05;;;;;;;17.53;4.77;;;6.60;99.90;;;;;;5099594;28;20821;-74
2022/11/12 07:28:52;;;;;;;9.00;5.13;;;6.50;99.90;;;;;;5082604;28;20512;-74
2022/11/12 07:31:38;;;;;;;8.90;4.60;;;6.50;99.90;;;;;;5083324;28;20829;-75
2022/11/12 07:34:24;;;;;;;15.37;4.20;;;6.60;99.90;;;;;;5090389;28;20551;-75
2022/11/12 07:37:09;;;;;;;22.35;3.90;;;6.60;99.90;;;;;;5076277;28;20875;-76
2022/11/12 07:39:56;;;;;;;6.27;5.00;;;6.70;99.90;;;;;;5086267;28;20324;-76
2022/11/12 07:42:42;;;;;;;8.33;4.03;;;6.60;99.90;;;;;;5085885;28;20958;-75
2022/11/12 07:45:27;;;;;;;6.72;4.70;;;6.60;99.90;;;;;;5078135;28;20831;-75
2022/11/12 07:48:13;;;;;;;12.73;4.13;;;6.50;99.90;;;;;;5085422;28;20269;-75
2022/11/12 07:51:03;;;;;;;12.53;4.27;;;6.50;99.90;;;;;;5097150;28;20425;-75
2022/11/12 07:53:50;;;;;;;13.43;3.43;;;6.50;99.90;;;;;;5086841;28;20440;-75
2022/11/12 07:56:37;;;;;;;7.90;4.67;;;6.50;99.90;;;;;;5089560;28;20465;-75
2022/11/12 07:59:23;;;;;;;4.78;4.35;;;6.50;99.90;;;;;;5098188;28;20436;-75
2022/11/12 08:02:10;;;;;;;7.30;4.40;;;6.60;99.90;;;;;;5087374;28;20670;-75
2022/11/12 08:04:55;;;;;;;7.83;4.43;;;6.60;99.90;;;;;;5101697;28;20424;-75
2022/11/12 08:07:41;;;;;;;12.70;4.75;;;6.60;99.90;;;;;;5090928;28;20475;-74
2022/11/12 08:10:26;;;;;;;4.95;4.03;;;6.70;99.90;;;;;;5101455;28;20620;-75
2022/11/12 08:13:13;;;;;;;24.75;4.60;;;6.70;99.90;;;;;;5101404;28;20227;-75
2022/11/12 08:15:59;;;;;;;5.37;4.60;;;6.70;99.90;;;;;;5095287;28;20572;-75
2022/11/12 08:18:46;;;;;;;6.47;4.63;;;6.70;99.90;;;;;;5086989;28;20446;-74
2022/11/12 08:21:31;;;;;;;12.63;4.13;;;6.70;99.90;;;;;;5091933;28;20802;-75
2022/11/12 08:24:17;;;;;;;11.30;4.80;;;6.60;99.90;;;;;;5095963;28;20457;-75
2022/11/12 08:27:02;;;;;;;21.43;5.00;;;6.60;99.90;;;;;;5079753;28;20566;-75
2022/11/12 08:29:49;;;;;;;23.73;5.53;;;6.70;99.90;;;;;;5103699;28;21080;-75
2022/11/12 08:32:34;;;;;;;9.17;6.67;;;6.80;99.90;;;;;;5094839;28;20732;-75
2022/11/12 08:35:20;;;;;;;22.13;7.20;;;6.80;99.90;;;;;;5104019;28;20417;-76
2022/11/12 08:38:09;;;;;;;15.43;6.43;;;6.80;99.90;;;;;;5086331;28;20702;-75
2022/11/12 08:40:54;;;;;;;5.82;4.88;;;6.90;99.90;;;;;;5091361;28;20416;-73
2022/11/12 08:43:42;;;;;;;5.25;4.75;;;6.80;99.90;;;;;;5096967;28;20818;-75
2022/11/12 08:46:28;;;;;;;7.70;4.65;;;6.80;99.90;;;;;;5088718;28;20253;-75
2022/11/12 08:49:14;;;;;;;7.10;5.00;;;6.80;99.90;;;;;;5084830;28;20202;-74
2022/11/12 08:51:59;;;;;;;8.40;5.80;;;6.80;99.90;;;;;;5097587;28;20224;-74
2022/11/12 08:54:45;;;;;;;5.40;4.45;;;6.90;99.90;;;;;;5097065;28;20436;-74
2022/11/12 08:57:31;;;;;;;5.90;4.90;;;7.00;99.90;;;;;;5084106;28;20700;-74
2022/11/12 09:00:17;;;;;;;11.10;5.30;;;7.00;99.90;;;;;;5098216;28;20416;-75
2022/11/12 09:03:07;;;;;;;26.13;6.37;;;7.00;99.90;;;;;;5108152;28;20458;-74
2022/11/12 09:05:53;;;;;;;9.90;7.80;;;7.10;99.90;;;;;;5098066;28;20888;-74
2022/11/12 09:08:39;;;;;;;17.52;9.57;;;7.00;99.90;;;;;;5083671;28;20458;-75
2022/11/12 09:11:24;;;;;;;10.60;6.75;;;7.00;99.90;;;;;;5084043;28;20219;-75
2022/11/12 09:14:10;;;;;;;8.33;6.80;;;7.00;99.90;;;;;;5092237;28;20275;-75
2022/11/12 09:16:55;;;;;;;10.47;7.20;;;7.10;99.90;;;;;;5086689;28;20578;-75
2022/11/12 09:19:42;;;;;;;10.63;5.93;;;7.20;99.90;;;;;;5094806;28;20416;-75
2022/11/12 09:22:28;;;;;;;6.67;5.70;;;7.20;99.90;;;;;;5100147;28;20195;-75
2022/11/12 09:25:13;;;;;;;9.27;6.22;;;7.30;99.90;;;;;;5099781;28;20445;-74
2022/11/12 09:28:05;;;;;;;6.80;6.03;;;7.30;99.90;;;;;;5082268;28;20728;-75
2022/11/12 09:30:52;;;;;;;8.30;6.07;;;7.30;99.90;;;;;;5101560;28;20582;-75
2022/11/12 09:33:38;;;;;;;8.88;5.90;;;7.40;99.90;;;;;;5092770;28;20461;-74
2022/11/12 09:36:25;;;;;;;9.70;8.07;;;7.40;99.90;;;;;;5085590;28;20204;-74
2022/11/12 09:39:10;;;;;;;10.20;8.70;;;7.50;99.90;;;;;;5102385;28;20775;-75
2022/11/12 09:41:58;;;;;;;10.10;7.93;;;7.50;99.90;;;;;;5088754;28;20440;-75
2022/11/12 09:44:46;;;;;;;8.37;6.87;;;7.50;99.90;;;;;;5096743;28;20928;-75
2022/11/12 09:47:37;;;;;;;7.70;6.23;;;7.50;99.90;;;;;;5085464;28;20476;-74
2022/11/12 09:50:27;;;;;;;9.10;7.50;;;7.50;99.90;;;;;;5094003;28;20978;-74
2022/11/12 09:53:17;;;;;;;9.33;6.77;;;7.60;99.90;;;;;;5093390;28;20469;-75
2022/11/12 09:56:07;;;;;;;8.60;7.70;;;7.60;99.90;;;;;;5092357;28;20457;-75
2022/11/12 09:58:54;;;;;;;8.57;7.20;;;7.70;99.90;;;;;;5098692;28;21045;-74
2022/11/12 10:01:52;;;;;;;10.93;7.50;;;7.70;99.90;;;;;;5100393;28;20492;-75
2022/11/12 10:04:49;;;;;;;8.40;6.55;;;7.80;99.90;;;;;;5104657;28;21026;-76
2022/11/12 10:07:52;;;;;;;8.90;6.80;;;7.80;99.90;;;;;;5092638;28;20220;-75
2022/11/12 10:10:45;;;;;;;10.13;7.37;;;7.70;99.90;;;;;;5101683;28;20443;-74
2022/11/12 10:13:42;;;;;;;7.90;6.67;;;7.70;99.90;;;;;;5088637;28;20465;-75
2022/11/12 10:16:45;;;;;;;8.00;7.00;;;7.60;99.90;;;;;;5090538;28;20466;-75
2022/11/12 10:20:00;;;;;;;7.60;6.40;;;7.70;99.90;;;;;;5088854;28;20459;-75
2022/11/12 10:23:04;;;;;;;12.87;7.13;;;7.80;99.90;;;;;;5090795;28;20536;-75
2022/11/12 10:25:52;;;;;;;7.33;6.50;;;7.90;99.90;;;;;;5085152;28;21064;-74
2022/11/12 10:28:43;;;;;;;8.53;7.23;;;8.00;99.90;;;;;;5097014;28;20955;-75
2022/11/12 10:31:29;;;;;;;9.38;7.70;;;8.00;99.90;;;;;;5099632;28;20775;-75
2022/11/12 10:34:19;;;;;;;7.90;7.10;;;8.10;99.90;;;;;;5098029;28;20203;-75
2022/11/12 10:37:10;;;;;;;9.37;7.90;;;8.20;99.90;;;;;;5086702;28;20538;-75
2022/11/12 10:39:56;;;;;;;11.77;8.20;;;8.30;99.90;;;;;;5094053;28;20444;-75
2022/11/12 10:42:58;;;;;;;8.50;7.30;;;8.30;99.90;;;;;;5099639;28;20555;-75
2022/11/12 10:45:44;;;;;;;10.27;8.82;;;8.40;99.90;;;;;;5085096;28;20828;-75
2022/11/12 10:48:32;;;;;;;13.33;9.77;;;8.40;99.90;;;;;;5102256;28;20365;-75
2022/11/12 10:51:26;;;;;;;12.40;10.43;;;8.40;99.90;;;;;;5091290;28;20515;-73
2022/11/12 10:54:29;;;;;;;10.17;9.00;;;8.40;99.90;;;;;;5093314;28;20469;-75
2022/11/12 10:57:22;;;;;;;11.17;9.50;;;8.50;99.90;;;;;;5091077;28;20660;-75
2022/11/12 11:00:17;;;;;;;11.50;10.20;;;8.50;99.90;;;;;;5084227;28;20911;-75
2022/11/12 11:03:06;;;;;;;13.00;9.57;;;8.50;99.90;;;;;;5097286;28;20438;-74
2022/11/12 11:05:54;;;;;;;11.43;9.53;;;8.60;99.90;;;;;;5106230;28;20503;-74
2022/11/12 11:08:42;;;;;;;9.47;7.30;;;8.60;99.90;;;;;;5104896;28;20985;-75
2022/11/12 11:11:29;;;;;;;11.57;9.30;;;8.60;99.90;;;;;;5086779;28;21029;-75
2022/11/12 11:14:31;;;;;;;9.20;8.07;;;8.60;99.90;;;;;;5097159;28;20502;-74
2022/11/12 11:17:19;;;;;;;9.37;7.33;;;8.70;99.90;;;;;;5088732;28;20514;-74
2022/11/12 11:20:06;;;;;;;11.00;6.10;;;8.70;99.90;;;;;;5087202;28;20445;-75
2022/11/12 11:22:56;;;;;;;6.37;5.57;;;8.80;99.90;;;;;;5086189;28;20806;-74
2022/11/12 11:25:43;;;;;;;5.87;5.30;;;8.80;99.90;;;;;;5104669;28;20425;-74
2022/11/12 11:28:38;;;;;;;9.43;6.23;;;8.80;99.90;;;;;;5106263;28;20510;-74
2022/11/12 11:31:32;;;;;;;8.30;6.70;;;8.90;99.90;;;;;;5093250;28;20450;-74
2022/11/12 11:34:37;;;;;;;8.67;7.33;;;8.90;99.90;;;;;;5092315;28;20465;-75
2022/11/12 11:37:27;;;;;;;9.67;8.03;;;8.90;99.90;;;;;;5102522;28;20782;-75
2022/11/12 11:40:20;;;;;;;11.03;8.07;;;9.00;99.90;;;;;;5094260;28;20831;-73
2022/11/12 11:43:28;;;;;;;13.00;9.00;;;9.00;99.90;;;;;;5080757;28;20491;-73
2022/11/12 11:46:29;;;;;;;12.47;9.70;;;9.00;99.90;;;;;;5097122;28;20448;-73
2022/11/12 11:49:35;;;;;;;12.87;9.43;;;9.00;99.90;;;;;;5092491;28;20418;-72
2022/11/12 11:52:41;;;;;;;11.83;8.90;;;9.10;99.90;;;;;;5082508;28;20441;-73
2022/11/12 11:55:46;;;;;;;19.17;9.57;;;9.20;99.90;;;;;;5086373;28;20449;-73
2022/11/12 11:58:59;;;;;;;11.70;9.00;;;9.10;99.90;;;;;;5087507;28;20473;-73
2022/11/12 12:02:03;;;;;;;11.43;9.70;;;9.10;99.90;;;;;;5085201;28;20514;-73
2022/11/12 12:04:57;;;;;;;13.90;10.90;;;9.00;99.90;;;;;;5088857;28;20587;-74
2022/11/12 12:07:51;;;;;;;15.50;8.97;;;9.10;99.90;;;;;;5098407;28;20421;-74
2022/11/12 12:10:45;;;;;;;11.90;9.33;;;9.00;99.90;;;;;;5101759;28;20774;-74
2022/11/12 12:13:40;;;;;;;11.10;8.83;;;9.00;99.90;;;;;;5099497;28;20469;-74
2022/11/12 12:16:39;;;;;;;12.37;9.23;;;9.10;99.90;;;;;;5102672;28;20440;-74
2022/11/12 12:19:56;;;;;;;15.37;10.60;;;9.20;99.90;;;;;;5097310;28;20427;-74
2022/11/12 12:22:49;;;;;;;11.93;9.47;;;9.20;99.90;;;;;;5086237;28;20832;-75
2022/11/12 12:25:37;;;;;;;8.13;6.87;;;9.30;99.90;;;;;;5109745;28;20844;-74
2022/11/12 12:28:33;;;;;;;10.77;7.97;;;9.20;99.90;;;;;;5103734;28;20519;-74
2022/11/12 12:31:24;;;;;;;10.60;8.70;;;9.20;99.90;;;;;;5085311;28;20447;-74
2022/11/12 12:34:18;;;;;;;9.47;7.97;;;9.20;99.90;;;;;;5097256;28;20462;-74
2022/11/12 12:37:13;;;;;;;8.50;7.37;;;9.20;99.90;;;;;;5094208;28;20423;-74
2022/11/12 12:40:05;;;;;;;9.73;7.97;;;9.20;99.90;;;;;;5094886;28;20933;-74
2022/11/12 12:42:57;;;;;;;12.00;9.13;;;9.20;99.90;;;;;;5085233;28;20429;-74
2022/11/12 12:45:44;;;;;;;21.23;9.70;;;9.30;99.90;;;;;;5088119;28;20523;-74
2022/11/12 12:48:34;;;;;;;17.73;9.80;;;9.20;99.90;;;;;;5103473;28;20602;-73
2022/11/12 12:51:20;;;;;;;13.33;10.80;;;9.10;99.90;;;;;;5079999;28;20421;-74
2022/11/12 12:54:44;;;;;;;16.70;10.03;;;9.20;99.90;;;;;;5088274;28;20473;-74
2022/11/12 12:57:32;;;;;;;13.47;10.40;;;9.20;99.90;;;;;;5082480;28;20511;-74
2022/11/12 13:00:34;;;;;;;13.33;10.90;;;9.20;99.90;;;;;;5090978;28;20424;-73
2022/11/12 13:03:51;;;;;;;13.07;10.73;;;9.20;99.90;;;;;;5082671;28;20454;-74
2022/11/12 13:06:39;;;;;;;14.93;11.30;;;9.20;99.90;;;;;;5101721;28;20524;-74
2022/11/12 13:09:27;;;;;;;11.30;9.97;;;9.20;99.90;;;;;;5087008;28;20967;-74
2022/11/12 13:12:22;;;;;;;15.10;12.00;;;9.30;99.90;;;;;;5080679;28;20416;-74
2022/11/12 13:15:14;;;;;;;14.97;12.60;;;9.30;99.90;;;;;;5092976;28;20484;-74
2022/11/12 13:18:00;;;;;;;16.80;11.20;;;9.30;99.90;;;;;;5089724;28;20841;-74
2022/11/12 13:21:08;;;;;;;15.80;12.10;;;9.30;99.90;;;;;;5093413;28;20766;-73
2022/11/12 13:24:09;;;;;;;17.17;11.30;;;9.40;99.90;;;;;;5080568;28;20974;-73
2022/11/12 13:26:57;;;;;;;15.27;12.90;;;9.30;99.90;;;;;;5089734;28;21113;-74
2022/11/12 13:29:45;;;;;;;15.23;11.90;;;9.10;99.90;;;;;;5090033;28;20658;-74
2022/11/12 13:32:34;;;;;;;15.87;11.73;;;9.10;99.90;;;;;;5082692;28;20511;-73
2022/11/12 13:35:33;;;;;;;12.87;11.40;;;9.20;99.90;;;;;;5091143;28;20482;-73
2022/11/12 13:38:19;;;;;;;19.60;11.87;;;9.20;99.90;;;;;;5088712;28;20547;-74
2022/11/12 13:41:12;;;;;;;19.03;12.63;;;9.20;99.90;;;;;;5088236;28;20476;-74
2022/11/12 13:43:59;;;;;;;14.80;12.03;;;9.10;99.90;;;;;;5082077;28;20823;-74
2022/11/12 13:46:46;;;;;;;15.63;11.37;;;9.20;99.90;;;;;;5088098;28;20991;-74
2022/11/12 13:49:31;;;;;;;18.90;11.87;;;9.20;99.90;;;;;;5089109;28;20474;-74
2022/11/12 13:52:19;;;;;;;16.60;12.03;;;9.20;99.90;;;;;;5084863;28;20783;-74
2022/11/12 13:55:07;;;;;;;19.33;12.67;;;9.20;99.90;;;;;;5088133;28;20442;-74
2022/11/12 13:57:54;;;;;;;16.10;11.80;;;9.30;99.90;;;;;;5095778;28;20517;-74
2022/11/12 14:00:41;;;;;;;16.23;12.97;;;9.30;99.90;;;;;;5091777;28;20817;-74
2022/11/12 14:03:29;;;;;;;14.50;12.37;;;9.40;99.90;;;;;;5082553;28;20446;-74
2022/11/12 14:06:17;;;;;;;13.97;11.27;;;9.30;99.90;;;;;;5091755;28;20560;-74
2022/11/12 14:09:19;;;;;;;17.00;12.00;;;9.30;99.90;;;;;;5096513;28;20448;-75
2022/11/12 14:12:40;;;;;;;15.00;13.10;;;9.30;99.90;;;;;;5090053;28;20415;-74
2022/11/12 14:15:40;;;;;;;14.90;12.10;;;9.10;99.90;;;;;;5088364;28;20576;-74
2022/11/12 14:18:36;;;;;;;18.47;14.10;;;9.10;99.90;;;;;;5085706;28;20626;-74
2022/11/12 14:21:21;;;;;;;21.40;13.53;;;9.10;99.90;;;;;;5088402;28;20930;-74
2022/11/12 14:24:12;;;;;;;18.77;13.37;;;9.10;99.90;;;;;;5086023;28;20457;-74
2022/11/12 14:26:57;;;;;;;24.13;13.70;;;9.00;99.90;;;;;;5096876;28;20841;-74
2022/11/12 14:29:43;;;;;;;17.70;13.43;;;9.00;99.90;;;;;;5095329;28;21057;-74
2022/11/12 14:32:36;;;;;;;18.60;14.40;;;9.00;99.90;;;;;;5090408;28;20983;-74
2022/11/12 14:35:33;;;;;;;16.13;14.10;;;9.10;99.90;;;;;;5095500;28;20897;-74
2022/11/12 14:38:21;;;;;;;17.70;14.43;;;9.00;99.90;;;;;;5098136;28;20511;-76
2022/11/12 14:41:10;;;;;;;21.40;15.10;;;9.00;99.90;;;;;;5092222;28;20446;-75
2022/11/12 14:43:58;;;;;;;17.73;13.67;;;8.90;99.90;;;;;;5091165;28;20433;-76
2022/11/12 14:46:47;;;;;;;18.60;14.67;;;8.90;99.90;;;;;;5098067;28;21029;-74
2022/11/12 14:49:37;;;;;;;19.20;14.27;;;9.00;99.90;;;;;;5092431;28;20442;-76
2022/11/12 14:52:30;;;;;;;17.80;14.53;;;9.00;99.90;;;;;;5092663;28;20809;-76
2022/11/12 14:55:19;;;;;;;16.53;13.43;;;9.10;99.90;;;;;;5097708;28;20529;-75
2022/11/12 14:58:05;;;;;;;18.00;14.10;;;9.10;99.90;;;;;;5099387;28;20807;-74
2022/11/12 15:00:52;;;;;;;17.40;14.10;;;9.00;99.90;;;;;;5106271;28;20421;-76
2022/11/12 15:03:38;;;;;;;17.57;13.43;;;9.00;99.90;;;;;;5091682;28;20561;-75